createdAt,value
2019-04-23T00:00:56.319Z,9.62
2019-04-23T00:03:18.825Z,9.42
2019-04-23T00:06:00.560Z,9.15
2019-04-23T00:08:25.854Z,8.90
2019-04-23T00:10:58.471Z,8.66
2019-04-23T00:13:35.357Z,8.55
2019-04-23T00:16:17.914Z,8.49
2019-04-23T00:21:28.239Z,8.35
2019-04-23T00:24:13.805Z,8.24
2019-04-23T00:29:13.595Z,8.13
2019-04-23T00:31:31.417Z,8.14
2019-04-23T00:34:10.810Z,8.14
2019-04-23T00:36:37.741Z,8.04
2019-04-23T00:39:12.854Z,7.87
2019-04-23T00:41:42.694Z,7.70
2019-04-23T00:44:21.251Z,7.60
2019-04-23T00:46:54.429Z,7.51
2019-04-23T00:49:22.605Z,7.46
2019-04-23T00:54:17.924Z,7.36
2019-04-23T00:56:54.442Z,7.30
2019-04-23T00:59:20.691Z,7.21
2019-04-23T01:04:25.456Z,7.00
2019-04-23T01:06:58.276Z,6.96
2019-04-23T01:09:29.340Z,6.90
2019-04-23T01:11:57.881Z,6.81
2019-04-23T01:14:33.316Z,6.79
2019-04-23T01:17:08.807Z,6.77
2019-04-23T01:19:48.396Z,6.76
2019-04-23T01:21:55.837Z,6.80
2019-04-23T01:24:52.285Z,6.84
2019-04-23T01:28:04.242Z,6.78
2019-04-23T01:30:19.779Z,6.73
2019-04-23T01:32:51.876Z,6.68
2019-04-23T01:35:36.337Z,6.70
2019-04-23T01:37:56.137Z,6.76
2019-04-23T01:40:27.249Z,6.88
2019-04-23T01:43:07.982Z,6.99
2019-04-23T01:47:59.782Z,7.28
2019-04-23T01:50:37.876Z,7.26
2019-04-23T01:53:06.896Z,7.20
2019-04-23T01:55:33.060Z,7.11
2019-04-23T01:58:23.849Z,7.07
2019-04-23T02:03:13.613Z,7.15
2019-04-23T02:05:41.302Z,7.08
2019-04-23T02:08:08.424Z,7.07
2019-04-23T02:13:16.527Z,7.16
2019-04-23T02:15:46.222Z,7.14
2019-04-23T02:18:16.336Z,7.15
2019-04-23T02:20:47.265Z,7.20
2019-04-23T02:23:32.763Z,7.16
2019-04-23T02:26:07.858Z,7.14
2019-04-23T02:28:34.088Z,7.24
2019-04-23T02:31:40.822Z,7.28
2019-04-23T02:38:45.739Z,7.48
2019-04-23T02:41:27.107Z,7.32
2019-04-23T02:43:56.243Z,7.23
2019-04-23T02:51:17.976Z,7.04
2019-04-23T02:56:30.700Z,6.88
2019-04-23T02:58:54.481Z,6.84
2019-04-23T03:16:55.186Z,6.48
2019-04-23T03:19:49.754Z,6.54
2019-04-23T03:22:51.677Z,6.65
2019-04-23T03:27:55.995Z,6.83
2019-04-23T03:38:41.930Z,6.73
2019-04-23T03:41:09.015Z,6.87
2019-04-23T03:43:33.625Z,6.94
2019-04-23T03:50:55.561Z,6.92
2019-04-23T03:53:43.190Z,6.95
2019-04-23T03:56:14.529Z,6.99
2019-04-23T04:01:11.896Z,6.94
2019-04-23T04:06:29.275Z,6.98
2019-04-23T04:08:50.701Z,6.94
2019-04-23T04:13:55.834Z,6.78
2019-04-23T04:16:38.291Z,6.77
2019-04-23T04:26:37.836Z,6.53
2019-04-23T04:28:58.830Z,6.49
2019-04-23T04:31:36.871Z,6.53
2019-04-23T04:36:28.070Z,6.59
2019-04-23T04:39:06.038Z,6.57
2019-04-23T04:44:17.554Z,6.64
2019-04-23T04:51:55.483Z,6.79
2019-04-23T04:54:09.367Z,6.92
2019-04-23T04:56:37.543Z,6.96
2019-04-23T05:01:37.332Z,7.10
2019-04-23T05:04:18.250Z,7.20
2019-04-23T05:09:25.195Z,7.50
2019-04-23T05:14:20.892Z,7.80
2019-04-23T05:16:46.028Z,7.90
2019-04-23T05:19:35.404Z,8.00
2019-04-23T05:22:02.961Z,8.08
2019-04-23T05:24:31.713Z,8.12
2019-04-23T05:26:58.337Z,8.15
2019-04-23T05:29:23.611Z,8.22
2019-04-23T05:31:57.698Z,8.23
2019-04-23T05:34:29.513Z,8.39
2019-04-23T05:37:00.104Z,8.53
2019-04-23T05:39:35.792Z,8.63
2019-04-23T05:42:04.514Z,8.76
2019-04-23T05:44:41.477Z,8.84
2019-04-23T05:49:43.514Z,9.03
2019-04-23T05:52:12.129Z,9.07
2019-04-23T05:54:43.323Z,9.14
2019-04-23T05:57:11.590Z,9.27
2019-04-23T05:59:43.621Z,9.38
2019-04-23T06:02:11.230Z,9.54
2019-04-23T06:04:42.735Z,9.64
2019-04-23T06:07:28.890Z,9.74
2019-04-23T06:09:56.383Z,9.86
2019-04-23T06:12:18.742Z,10.01
2019-04-23T06:14:55.840Z,10.19
2019-04-23T06:17:21.362Z,10.33
2019-04-23T06:20:01.257Z,10.46
2019-04-23T06:22:30.025Z,10.56
2019-04-23T06:25:04.313Z,10.67
2019-04-23T06:27:28.967Z,10.77
2019-04-23T06:29:57.117Z,10.85
2019-04-23T06:32:32.915Z,11.05
2019-04-23T06:34:56.844Z,11.26
2019-04-23T06:38:00.005Z,11.46
2019-04-23T06:39:59.775Z,11.52
2019-04-23T06:42:35.530Z,11.62
2019-04-23T06:45:10.066Z,11.80
2019-04-23T06:47:43.060Z,11.96
2019-04-23T06:50:14.480Z,12.10
2019-04-23T06:52:41.133Z,12.14
2019-04-23T06:55:20.635Z,12.27
2019-04-23T06:57:52.266Z,12.28
2019-04-23T07:00:21.166Z,12.39
2019-04-23T07:02:57.012Z,12.53
2019-04-23T07:05:23.823Z,12.56
2019-04-23T07:07:59.754Z,12.69
2019-04-23T07:10:25.008Z,12.76
2019-04-23T07:12:56.182Z,12.85
2019-04-23T07:15:39.155Z,12.90
2019-04-23T07:17:54.285Z,13.07
2019-04-23T07:20:33.483Z,13.17
2019-04-23T07:23:04.856Z,13.33
2019-04-23T07:25:34.584Z,13.47
2019-04-23T07:28:09.888Z,13.53
2019-04-23T07:30:33.304Z,13.58
2019-04-23T07:33:11.557Z,13.64
2019-04-23T07:35:45.576Z,13.67
2019-04-23T07:38:44.273Z,13.85
2019-04-23T07:41:18.345Z,13.87
2019-04-23T07:43:54.539Z,13.91
2019-04-23T07:46:52.695Z,14.01
2019-04-23T07:49:20.814Z,14.01
2019-04-23T07:51:59.044Z,14.15
2019-04-23T07:54:22.739Z,14.21
2019-04-23T07:56:53.988Z,14.34
2019-04-23T07:59:25.324Z,14.40
2019-04-23T08:01:58.131Z,14.41
2019-04-23T08:04:29.290Z,14.45
2019-04-23T08:06:55.906Z,14.50
2019-04-23T08:09:34.226Z,14.52
2019-04-23T08:11:56.286Z,14.77
2019-04-23T08:14:32.800Z,14.86
2019-04-23T08:16:58.241Z,14.94
2019-04-23T08:19:42.501Z,15.03
2019-04-23T08:22:15.533Z,15.19
2019-04-23T08:24:57.316Z,15.14
2019-04-23T08:27:32.839Z,15.22
2019-04-23T08:30:18.053Z,15.33
2019-04-23T08:32:27.984Z,15.40
2019-04-23T08:35:10.568Z,15.42
2019-04-23T08:37:54.358Z,15.54
2019-04-23T08:40:15.127Z,15.69
2019-04-23T08:45:24.140Z,15.78
2019-04-23T08:50:54.701Z,15.86
2019-04-23T08:53:31.736Z,15.96
2019-04-23T09:05:57.777Z,16.06
2019-04-23T09:11:04.680Z,16.30
2019-04-23T09:16:13.562Z,16.62
2019-04-23T09:18:32.616Z,16.61
2019-04-23T09:21:02.157Z,16.65
2019-04-23T09:23:40.932Z,16.79
2019-04-23T09:26:02.321Z,16.74
2019-04-23T09:34:11.428Z,16.96
2019-04-23T09:37:18.886Z,17.10
2019-04-23T09:40:13.959Z,17.13
2019-04-23T09:42:47.811Z,16.99
2019-04-23T09:45:24.868Z,17.14
2019-04-23T09:48:11.582Z,17.33
2019-04-23T09:53:17.753Z,17.53
2019-04-23T09:58:08.193Z,17.60
2019-04-23T10:00:40.664Z,17.71
2019-04-23T10:03:04.673Z,17.63
2019-04-23T10:05:30.870Z,17.77
2019-04-23T10:08:01.615Z,17.89
2019-04-23T10:10:22.774Z,18.04
2019-04-23T10:12:53.905Z,18.08
2019-04-23T10:15:28.837Z,18.12
2019-04-23T10:17:56.196Z,18.28
2019-04-23T10:20:26.730Z,18.24
2019-04-23T10:22:56.760Z,18.25
2019-04-23T10:25:27.768Z,18.35
2019-04-23T10:28:01.593Z,18.33
2019-04-23T10:30:28.912Z,18.40
2019-04-23T10:32:58.360Z,18.61
2019-04-23T10:35:39.465Z,18.73
2019-04-23T10:38:04.424Z,18.68
2019-04-23T10:40:34.806Z,18.71
2019-04-23T10:43:02.115Z,18.68
2019-04-23T10:46:15.092Z,18.94
2019-04-23T10:54:26.325Z,19.22
2019-04-23T10:56:55.297Z,19.32
2019-04-23T10:59:38.959Z,19.30
2019-04-23T11:04:54.288Z,19.72
2019-04-23T11:07:28.572Z,19.76
2019-04-23T11:12:46.177Z,19.92
2019-04-23T11:17:52.046Z,20.09
2019-04-23T11:20:30.332Z,20.08
2019-04-23T11:22:50.947Z,20.00
2019-04-23T11:25:31.631Z,20.29
2019-04-23T11:35:43.033Z,21.05
2019-04-23T11:40:34.007Z,21.14
2019-04-23T11:43:09.419Z,21.41
2019-04-23T11:45:51.542Z,21.50
2019-04-23T11:51:30.349Z,21.33
2019-04-23T11:55:47.674Z,21.84
2019-04-23T12:01:23.345Z,22.20
2019-04-23T12:04:00.326Z,22.17
2019-04-23T12:06:44.426Z,22.28
2019-04-23T12:09:33.777Z,22.41
2019-04-23T12:27:17.213Z,22.93
2019-04-23T12:29:46.182Z,23.10
2019-04-23T12:40:23.136Z,24.07
2019-04-23T12:42:58.734Z,24.27
2019-04-23T12:48:09.596Z,24.88
2019-04-23T12:50:41.793Z,24.96
2019-04-23T12:55:27.891Z,27.34
2019-04-23T12:57:56.438Z,29.71
2019-04-23T13:00:25.944Z,31.13
2019-04-23T13:03:12.497Z,31.86
2019-04-23T13:05:26.616Z,32.45
2019-04-23T13:08:05.793Z,32.49
2019-04-23T13:10:32.562Z,33.07
2019-04-23T13:13:11.379Z,33.40
2019-04-23T13:15:34.543Z,33.34
2019-04-23T13:18:06.666Z,33.73
2019-04-23T13:20:33.635Z,32.31
2019-04-23T13:23:15.243Z,33.41
2019-04-23T13:28:21.732Z,34.95
2019-04-23T13:30:58.977Z,35.95
2019-04-23T13:36:01.651Z,37.16
2019-04-23T13:38:35.497Z,37.19
2019-04-23T13:41:01.181Z,35.20
2019-04-23T13:43:39.777Z,34.43
2019-04-23T13:45:59.206Z,34.27
2019-04-23T13:48:24.783Z,34.34
2019-04-23T13:51:06.978Z,33.95
2019-04-23T13:56:04.166Z,36.05
2019-04-23T13:58:46.708Z,35.40
2019-04-23T14:18:59.137Z,37.20
2019-04-23T14:21:35.315Z,36.71
2019-04-23T14:28:55.408Z,33.34
2019-04-23T14:31:24.010Z,31.35
2019-04-23T14:39:21.997Z,30.64
2019-04-23T14:41:27.289Z,32.07
2019-04-23T14:44:12.828Z,33.42
2019-04-23T14:49:11.236Z,35.39
2019-04-23T14:54:33.430Z,36.76
2019-04-23T14:56:59.402Z,36.85
2019-04-23T14:59:16.317Z,36.00
2019-04-23T15:01:54.924Z,37.32
2019-04-23T15:04:26.987Z,39.06
2019-04-23T15:07:10.830Z,40.19
2019-04-23T15:09:36.271Z,40.32
2019-04-23T15:12:11.865Z,41.06
2019-04-23T15:14:37.528Z,40.53
2019-04-23T15:17:07.614Z,39.64
2019-04-23T15:19:52.345Z,39.84
2019-04-23T15:22:17.064Z,40.55
2019-04-23T15:25:15.204Z,40.27
2019-04-23T15:28:01.977Z,40.46
2019-04-23T15:29:31.797Z,40.00
2019-04-23T15:32:19.793Z,39.98
2019-04-23T15:34:49.030Z,39.45
2019-04-23T15:37:33.341Z,38.95
2019-04-23T15:39:56.629Z,38.37
2019-04-23T15:44:55.795Z,37.48
2019-04-23T15:47:26.715Z,37.42
2019-04-23T15:50:07.379Z,37.22
2019-04-23T15:52:34.794Z,37.39
2019-04-23T15:57:44.966Z,37.98
2019-04-23T15:59:58.855Z,36.92
2019-04-23T16:02:03.887Z,36.38
2019-04-23T16:04:33.783Z,34.28
2019-04-23T16:07:04.533Z,32.24
2019-04-23T16:10:08.983Z,30.89
2019-04-23T16:12:33.369Z,29.85
2019-04-23T16:17:35.420Z,30.21
2019-04-23T16:20:25.481Z,29.85
2019-04-23T16:22:48.746Z,29.18
2019-04-23T16:25:17.907Z,28.31
2019-04-23T16:27:56.387Z,27.44
2019-04-23T16:30:36.465Z,26.53
2019-04-23T16:38:38.957Z,26.45
2019-04-23T16:41:00.739Z,27.13
2019-04-23T16:43:30.361Z,27.97
2019-04-23T16:46:07.268Z,28.75
2019-04-23T16:48:46.253Z,29.08
2019-04-23T16:53:46.310Z,27.90
2019-04-23T16:56:13.542Z,27.18
2019-04-23T16:58:57.888Z,26.61
2019-04-23T17:03:37.887Z,25.62
2019-04-23T17:06:21.832Z,25.52
2019-04-23T17:08:57.940Z,25.76
2019-04-23T17:13:50.981Z,25.34
2019-04-23T17:21:18.668Z,23.01
2019-04-23T17:24:05.768Z,22.51
2019-04-23T17:26:25.589Z,22.28
2019-04-23T17:29:00.003Z,22.01
2019-04-23T17:31:35.146Z,21.71
2019-04-23T17:33:59.089Z,21.50
2019-04-23T17:36:44.291Z,21.13
2019-04-23T17:39:21.117Z,20.86
2019-04-23T17:42:22.528Z,20.58
2019-04-23T17:45:06.355Z,20.37
2019-04-23T17:47:30.055Z,20.08
2019-04-23T17:50:59.521Z,19.92
2019-04-23T17:52:26.235Z,19.78
2019-04-23T17:55:01.756Z,19.66
2019-04-23T17:57:29.708Z,19.50
2019-04-23T18:05:06.142Z,19.02
2019-04-23T18:10:17.870Z,18.69
2019-04-23T18:12:46.262Z,18.57
2019-04-23T18:15:13.171Z,18.38
2019-04-23T18:17:41.066Z,18.24
2019-04-23T18:20:38.448Z,18.08
2019-04-23T18:23:10.111Z,17.88
2019-04-23T18:28:13.551Z,17.48
2019-04-23T18:31:12.978Z,17.23
2019-04-23T18:36:16.640Z,16.80
2019-04-23T18:41:17.045Z,16.48
2019-04-23T18:43:50.997Z,16.34
2019-04-23T18:46:27.889Z,16.35
2019-04-23T18:48:49.731Z,16.38
2019-04-23T18:51:20.660Z,16.33
2019-04-23T18:54:07.412Z,16.26
2019-04-23T18:56:30.625Z,16.09
2019-04-23T18:59:02.818Z,15.95
2019-04-23T19:01:45.106Z,15.89
2019-04-23T19:07:07.250Z,15.65
2019-04-23T19:13:02.142Z,15.41
2019-04-23T19:18:12.923Z,15.16
2019-04-23T19:23:13.821Z,15.07
2019-04-23T19:25:32.738Z,15.16
2019-04-23T19:28:15.652Z,15.21
2019-04-23T19:30:55.717Z,15.21
2019-04-23T19:33:29.299Z,15.28
2019-04-23T19:43:39.592Z,14.92
2019-04-23T19:46:12.704Z,14.83
2019-04-23T19:51:09.540Z,14.81
2019-04-23T19:58:51.745Z,14.93
2019-04-23T20:01:15.426Z,14.90
2019-04-23T20:03:49.586Z,14.88
2019-04-23T20:09:01.365Z,14.80
2019-04-23T20:11:13.530Z,14.74
2019-04-23T20:13:52.733Z,14.72
2019-04-23T20:16:19.670Z,14.71
2019-04-23T20:18:52.261Z,14.63
2019-04-23T20:21:13.491Z,14.50
2019-04-23T20:24:04.694Z,14.43
2019-04-23T20:26:17.137Z,14.43
2019-04-23T20:34:34.217Z,14.24
2019-04-23T20:39:25.121Z,14.01
2019-04-23T20:42:11.007Z,13.97
2019-04-23T20:47:06.219Z,13.87
2019-04-23T20:49:38.984Z,13.84
2019-04-23T20:54:42.228Z,13.65
2019-04-23T20:57:30.500Z,13.54
2019-04-23T21:03:25.949Z,13.53
2019-04-23T21:05:22.869Z,13.49
2019-04-23T21:15:40.655Z,13.45
2019-04-23T21:18:17.250Z,13.44
2019-04-23T21:20:42.974Z,13.33
2019-04-23T21:23:11.175Z,13.28
2019-04-23T21:25:43.855Z,13.27
2019-04-23T21:28:31.440Z,13.40
2019-04-23T21:31:00.789Z,13.40
2019-04-23T21:33:30.414Z,13.34
2019-04-23T21:39:04.012Z,13.10
2019-04-23T21:41:39.636Z,12.93
2019-04-23T21:56:37.170Z,12.44
2019-04-23T22:06:43.269Z,12.63
2019-04-23T22:09:16.156Z,12.66
2019-04-23T22:12:02.501Z,12.62
2019-04-23T22:16:57.898Z,12.58
2019-04-23T22:21:52.566Z,12.58
2019-04-23T22:24:17.009Z,12.57
2019-04-23T22:26:45.387Z,12.62
2019-04-23T22:29:26.221Z,12.68
2019-04-23T22:37:03.841Z,12.90
2019-04-23T22:39:23.868Z,12.93
2019-04-23T22:44:31.025Z,13.05
2019-04-23T22:47:04.323Z,13.09
2019-04-23T22:49:38.899Z,13.11
2019-04-23T22:52:08.761Z,13.10
2019-04-23T22:54:40.140Z,13.22
2019-04-23T22:57:26.274Z,13.36
2019-04-23T23:00:00.881Z,13.44
2019-04-23T23:02:37.065Z,13.54
2019-04-23T23:07:41.311Z,13.64
2019-04-23T23:10:06.863Z,13.63
2019-04-23T23:12:43.715Z,13.63
2019-04-23T23:15:08.373Z,13.68
2019-04-23T23:20:16.049Z,13.80
2019-04-23T23:22:51.764Z,13.87
2019-04-23T23:25:25.500Z,13.93
2019-04-23T23:27:51.800Z,14.02
2019-04-23T23:30:21.685Z,14.08
2019-04-23T23:32:51.771Z,14.15
2019-04-23T23:35:24.513Z,14.20
2019-04-23T23:37:49.932Z,14.29
2019-04-23T23:40:21.849Z,14.33
2019-04-23T23:43:03.666Z,14.33
2019-04-23T23:47:58.662Z,14.38
2019-04-23T23:50:27.013Z,14.39
2019-04-23T23:53:11.948Z,14.39
2019-04-23T23:58:06.774Z,14.32
